sensor_id;sensor_type;location;lat;lon;timestamp;pressure;altitude;pressure_sealevel;temperature;humidity
2401;BME280;1211;43.200;27.914;2022-07-25T00:02:26;100856.16;;;27.47;100.00
2401;BME280;1211;43.200;27.914;2022-07-25T00:04:53;100848.13;;;27.30;100.00
2401;BME280;1211;43.200;27.914;2022-07-25T00:07:21;100850.53;;;25.86;100.00
2401;BME280;1211;43.200;27.914;2022-07-25T00:09:48;100847.75;;;25.63;100.00
2401;BME280;1211;43.200;27.914;2022-07-25T00:12:15;100852.59;;;25.62;100.00
2401;BME280;1211;43.200;27.914;2022-07-25T00:14:42;100856.13;;;25.66;100.00
2401;BME280;1211;43.200;27.914;2022-07-25T00:17:08;100854.94;;;25.64;100.00
2401;BME280;1211;43.200;27.914;2022-07-25T00:19:35;100859.38;;;25.65;100.00
2401;BME280;1211;43.200;27.914;2022-07-25T00:22:03;100859.03;;;25.63;100.00
2401;BME280;1211;43.200;27.914;2022-07-25T00:24:31;100865.28;;;25.74;100.00
2401;BME280;1211;43.200;27.914;2022-07-25T00:26:58;100868.56;;;25.69;100.00
2401;BME280;1211;43.200;27.914;2022-07-25T00:29:25;100866.19;;;25.67;100.00
2401;BME280;1211;43.200;27.914;2022-07-25T00:31:52;100859.47;;;26.71;100.00
2401;BME280;1211;43.200;27.914;2022-07-25T00:34:19;100860.06;;;26.19;100.00
2401;BME280;1211;43.200;27.914;2022-07-25T00:36:46;100865.03;;;25.88;100.00
2401;BME280;1211;43.200;27.914;2022-07-25T00:39:13;100868.47;;;25.76;100.00
2401;BME280;1211;43.200;27.914;2022-07-25T00:41:41;100870.97;;;25.70;100.00
2401;BME280;1211;43.200;27.914;2022-07-25T00:44:09;100877.72;;;25.76;100.00
2401;BME280;1211;43.200;27.914;2022-07-25T00:46:37;100886.31;;;25.69;100.00
2401;BME280;1211;43.200;27.914;2022-07-25T00:49:04;100888.25;;;25.45;100.00
2401;BME280;1211;43.200;27.914;2022-07-25T00:51:31;100903.31;;;25.35;100.00
2401;BME280;1211;43.200;27.914;2022-07-25T00:53:58;100933.69;;;25.24;100.00
2401;BME280;1211;43.200;27.914;2022-07-25T00:56:25;100979.91;;;25.00;100.00
2401;BME280;1211;43.200;27.914;2022-07-25T00:58:53;101004.03;;;24.63;100.00
2401;BME280;1211;43.200;27.914;2022-07-25T01:01:20;101009.66;;;24.60;100.00
2401;BME280;1211;43.200;27.914;2022-07-25T01:03:47;101006.09;;;24.56;100.00
2401;BME280;1211;43.200;27.914;2022-07-25T01:06:14;101003.22;;;24.59;100.00
2401;BME280;1211;43.200;27.914;2022-07-25T01:08:41;101009.97;;;24.73;100.00
2401;BME280;1211;43.200;27.914;2022-07-25T01:11:08;101021.84;;;24.50;100.00
2401;BME280;1211;43.200;27.914;2022-07-25T01:13:35;101009.66;;;24.60;100.00
2401;BME280;1211;43.200;27.914;2022-07-25T01:16:04;100995.19;;;24.61;100.00
2401;BME280;1211;43.200;27.914;2022-07-25T01:18:31;100974.25;;;24.62;100.00
2401;BME280;1211;43.200;27.914;2022-07-25T01:21:00;100962.75;;;24.46;100.00
2401;BME280;1211;43.200;27.914;2022-07-25T01:23:27;100990.66;;;24.30;100.00
2401;BME280;1211;43.200;27.914;2022-07-25T01:25:54;101004.66;;;24.37;100.00
2401;BME280;1211;43.200;27.914;2022-07-25T01:28:21;100999.69;;;24.52;100.00
2401;BME280;1211;43.200;27.914;2022-07-25T01:30:48;100982.00;;;24.51;100.00
2401;BME280;1211;43.200;27.914;2022-07-25T01:33:15;100984.66;;;24.66;100.00
2401;BME280;1211;43.200;27.914;2022-07-25T01:35:43;100991.09;;;24.70;100.00
2401;BME280;1211;43.200;27.914;2022-07-25T01:38:12;100986.09;;;24.84;100.00
2401;BME280;1211;43.200;27.914;2022-07-25T01:40:39;100982.84;;;24.86;100.00
2401;BME280;1211;43.200;27.914;2022-07-25T01:43:06;100980.03;;;24.86;100.00
2401;BME280;1211;43.200;27.914;2022-07-25T01:45:34;100978.03;;;24.83;100.00
2401;BME280;1211;43.200;27.914;2022-07-25T01:48:01;100974.38;;;24.93;100.00
2401;BME280;1211;43.200;27.914;2022-07-25T01:50:28;100967.81;;;24.99;100.00
2401;BME280;1211;43.200;27.914;2022-07-25T01:52:55;100966.25;;;24.95;100.00
2401;BME280;1211;43.200;27.914;2022-07-25T01:55:23;100952.56;;;24.97;100.00
2401;BME280;1211;43.200;27.914;2022-07-25T01:57:50;100948.53;;;24.98;100.00
2401;BME280;1211;43.200;27.914;2022-07-25T02:00:17;100961.84;;;24.94;100.00
2401;BME280;1211;43.200;27.914;2022-07-25T02:02:44;100949.81;;;24.90;100.00
2401;BME280;1211;43.200;27.914;2022-07-25T02:05:13;100942.09;;;24.97;100.00
2401;BME280;1211;43.200;27.914;2022-07-25T02:07:40;100949.03;;;24.86;100.00
2401;BME280;1211;43.200;27.914;2022-07-25T02:10:08;100945.22;;;24.66;100.00
2401;BME280;1211;43.200;27.914;2022-07-25T02:12:36;100951.25;;;24.68;100.00
2401;BME280;1211;43.200;27.914;2022-07-25T02:15:04;100933.66;;;24.56;100.00
2401;BME280;1211;43.200;27.914;2022-07-25T02:17:31;100932.06;;;24.55;100.00
2401;BME280;1211;43.200;27.914;2022-07-25T02:19:58;100934.53;;;24.50;100.00
2401;BME280;1211;43.200;27.914;2022-07-25T02:22:24;100929.75;;;24.43;100.00
2401;BME280;1211;43.200;27.914;2022-07-25T02:24:51;100941.09;;;24.36;100.00
2401;BME280;1211;43.200;27.914;2022-07-25T02:27:18;100925.09;;;24.26;100.00
2401;BME280;1211;43.200;27.914;2022-07-25T02:29:46;100934.94;;;24.48;100.00
2401;BME280;1211;43.200;27.914;2022-07-25T02:32:13;100933.72;;;24.53;100.00
2401;BME280;1211;43.200;27.914;2022-07-25T02:34:40;100916.38;;;24.54;100.00
2401;BME280;1211;43.200;27.914;2022-07-25T02:37:07;100912.81;;;24.50;100.00
2401;BME280;1211;43.200;27.914;2022-07-25T02:39:34;100912.81;;;24.50;100.00
2401;BME280;1211;43.200;27.914;2022-07-25T02:42:00;100913.81;;;24.71;100.00
2401;BME280;1211;43.200;27.914;2022-07-25T02:44:27;100910.38;;;24.52;100.00
2401;BME280;1211;43.200;27.914;2022-07-25T02:46:56;100914.41;;;24.48;100.00
2401;BME280;1211;43.200;27.914;2022-07-25T02:49:22;100914.84;;;24.46;100.00
2401;BME280;1211;43.200;27.914;2022-07-25T02:51:49;100902.81;;;24.42;100.00
2401;BME280;1211;43.200;27.914;2022-07-25T02:54:16;100901.47;;;24.54;100.00
2401;BME280;1211;43.200;27.914;2022-07-25T02:56:44;100899.84;;;24.56;100.00
2401;BME280;1211;43.200;27.914;2022-07-25T02:59:11;100900.69;;;24.53;100.00
2401;BME280;1211;43.200;27.914;2022-07-25T03:01:38;100888.72;;;24.46;100.00
2401;BME280;1211;43.200;27.914;2022-07-25T03:04:06;100887.66;;;24.67;100.00
2401;BME280;1211;43.200;27.914;2022-07-25T03:06:33;100885.38;;;24.58;100.00
2401;BME280;1211;43.200;27.914;2022-07-25T03:09:00;100884.44;;;24.68;100.00
2401;BME280;1211;43.200;27.914;2022-07-25T03:11:27;100883.84;;;24.84;100.00
2401;BME280;1211;43.200;27.914;2022-07-25T03:13:54;100875.97;;;25.02;100.00
2401;BME280;1211;43.200;27.914;2022-07-25T03:16:20;100866.22;;;25.10;100.00
2401;BME280;1211;43.200;27.914;2022-07-25T03:18:47;100867.41;;;25.39;100.00
2401;BME280;1211;43.200;27.914;2022-07-25T03:21:16;100861.09;;;25.82;100.00
2401;BME280;1211;43.200;27.914;2022-07-25T03:23:42;100868.25;;;25.36;100.00
2401;BME280;1211;43.200;27.914;2022-07-25T03:26:09;100855.25;;;25.42;100.00
2401;BME280;1211;43.200;27.914;2022-07-25T03:28:36;100866.75;;;25.55;100.00
2401;BME280;1211;43.200;27.914;2022-07-25T03:31:03;100856.19;;;25.63;100.00
2401;BME280;1211;43.200;27.914;2022-07-25T03:33:30;100851.91;;;27.23;100.00
2401;BME280;1211;43.200;27.914;2022-07-25T03:35:57;100848.72;;;27.21;100.00
2401;BME280;1211;43.200;27.914;2022-07-25T03:38:25;100847.34;;;27.10;100.00
2401;BME280;1211;43.200;27.914;2022-07-25T03:40:52;100846.16;;;26.91;100.00
2401;BME280;1211;43.200;27.914;2022-07-25T03:43:19;100849.34;;;27.29;100.00
2401;BME280;1211;43.200;27.914;2022-07-25T03:45:46;100848.06;;;27.14;100.00
2401;BME280;1211;43.200;27.914;2022-07-25T03:48:13;100849.34;;;26.93;100.00
2401;BME280;1211;43.200;27.914;2022-07-25T03:50:40;100854.06;;;26.99;100.00
2401;BME280;1211;43.200;27.914;2022-07-25T03:53:07;100842.50;;;27.10;100.00
2401;BME280;1211;43.200;27.914;2022-07-25T03:55:35;100838.13;;;26.89;100.00
2401;BME280;1211;43.200;27.914;2022-07-25T03:58:02;100838.31;;;26.59;100.00
2401;BME280;1211;43.200;27.914;2022-07-25T04:00:29;100838.66;;;26.61;100.00
2401;BME280;1211;43.200;27.914;2022-07-25T04:02:56;100836.00;;;26.93;100.00
2401;BME280;1211;43.200;27.914;2022-07-25T04:05:23;100830.88;;;26.88;100.00
2401;BME280;1211;43.200;27.914;2022-07-25T04:07:50;100837.09;;;26.99;100.00
2401;BME280;1211;43.200;27.914;2022-07-25T04:10:17;100846.44;;;27.32;100.00
2401;BME280;1211;43.200;27.914;2022-07-25T04:12:45;100856.78;;;27.39;100.00
2401;BME280;1211;43.200;27.914;2022-07-25T04:15:12;100871.44;;;27.86;100.00
2401;BME280;1211;43.200;27.914;2022-07-25T04:17:39;100869.16;;;28.42;100.00
2401;BME280;1211;43.200;27.914;2022-07-25T04:20:06;100891.41;;;28.11;100.00
2401;BME280;1211;43.200;27.914;2022-07-25T04:22:34;100883.19;;;28.17;100.00
2401;BME280;1211;43.200;27.914;2022-07-25T04:25:01;100897.06;;;26.48;100.00
2401;BME280;1211;43.200;27.914;2022-07-25T04:27:28;100898.41;;;26.16;100.00
2401;BME280;1211;43.200;27.914;2022-07-25T04:29:56;100914.06;;;26.44;100.00
2401;BME280;1211;43.200;27.914;2022-07-25T04:32:24;100915.34;;;28.10;100.00
2401;BME280;1211;43.200;27.914;2022-07-25T04:34:51;100915.47;;;26.56;100.00
2401;BME280;1211;43.200;27.914;2022-07-25T04:37:19;100917.75;;;26.64;100.00
2401;BME280;1211;43.200;27.914;2022-07-25T04:39:46;100922.81;;;26.53;100.00
2401;BME280;1211;43.200;27.914;2022-07-25T04:42:13;100920.28;;;26.59;100.00
2401;BME280;1211;43.200;27.914;2022-07-25T04:44:40;100925.56;;;26.57;100.00
2401;BME280;1211;43.200;27.914;2022-07-25T04:47:08;100920.78;;;26.74;100.00
2401;BME280;1211;43.200;27.914;2022-07-25T04:49:35;100923.44;;;26.61;100.00
2401;BME280;1211;43.200;27.914;2022-07-25T04:52:02;100913.81;;;26.58;100.00
2401;BME280;1211;43.200;27.914;2022-07-25T04:54:29;100917.97;;;26.74;100.00
2401;BME280;1211;43.200;27.914;2022-07-25T04:56:55;100915.84;;;26.58;100.00
2401;BME280;1211;43.200;27.914;2022-07-25T04:59:22;100920.16;;;26.66;100.00
2401;BME280;1211;43.200;27.914;2022-07-25T05:01:49;100923.72;;;26.47;100.00
2401;BME280;1211;43.200;27.914;2022-07-25T05:04:17;100936.31;;;26.65;100.00
2401;BME280;1211;43.200;27.914;2022-07-25T05:06:44;100952.53;;;26.38;100.00
2401;BME280;1211;43.200;27.914;2022-07-25T05:09:11;100956.03;;;26.46;100.00
2401;BME280;1211;43.200;27.914;2022-07-25T05:11:38;100965.88;;;26.38;100.00
2401;BME280;1211;43.200;27.914;2022-07-25T05:14:05;100976.53;;;26.50;100.00
2401;BME280;1211;43.200;27.914;2022-07-25T05:16:32;100964.56;;;26.89;100.00
2401;BME280;1211;43.200;27.914;2022-07-25T05:18:58;100969.91;;;27.23;100.00
2401;BME280;1211;43.200;27.914;2022-07-25T05:21:27;100973.88;;;27.25;100.00
2401;BME280;1211;43.200;27.914;2022-07-25T05:23:53;100984.41;;;27.25;100.00
2401;BME280;1211;43.200;27.914;2022-07-25T05:26:20;100983.09;;;27.49;100.00
2401;BME280;1211;43.200;27.914;2022-07-25T05:28:47;100998.78;;;27.34;100.00
2401;BME280;1211;43.200;27.914;2022-07-25T05:31:14;100993.97;;;27.31;100.00
2401;BME280;1211;43.200;27.914;2022-07-25T05:33:41;101001.81;;;27.03;100.00
2401;BME280;1211;43.200;27.914;2022-07-25T05:36:08;101004.44;;;26.94;100.00
2401;BME280;1211;43.200;27.914;2022-07-25T05:38:36;101006.78;;;26.53;100.00
2401;BME280;1211;43.200;27.914;2022-07-25T05:41:03;101010.59;;;26.66;100.00
2401;BME280;1211;43.200;27.914;2022-07-25T05:43:30;101009.78;;;27.09;100.00
2401;BME280;1211;43.200;27.914;2022-07-25T05:45:59;101022.66;;;26.90;100.00
2401;BME280;1211;43.200;27.914;2022-07-25T05:48:27;101015.00;;;26.90;100.00
2401;BME280;1211;43.200;27.914;2022-07-25T05:50:54;101008.19;;;27.08;100.00
2401;BME280;1211;43.200;27.914;2022-07-25T05:53:21;101004.44;;;27.34;100.00
2401;BME280;1211;43.200;27.914;2022-07-25T05:55:49;101008.94;;;27.51;100.00
2401;BME280;1211;43.200;27.914;2022-07-25T05:58:16;101000.50;;;27.47;100.00
2401;BME280;1211;43.200;27.914;2022-07-25T06:00:43;100996.75;;;27.15;100.00
2401;BME280;1211;43.200;27.914;2022-07-25T06:03:10;101001.44;;;27.01;100.00
2401;BME280;1211;43.200;27.914;2022-07-25T06:05:37;100991.03;;;27.18;100.00
2401;BME280;1211;43.200;27.914;2022-07-25T06:08:04;100995.78;;;27.61;100.00
2401;BME280;1211;43.200;27.914;2022-07-25T06:10:31;100998.03;;;27.69;100.00
2401;BME280;1211;43.200;27.914;2022-07-25T06:13:00;100999.13;;;27.92;100.00
2401;BME280;1211;43.200;27.914;2022-07-25T06:15:26;100985.72;;;27.40;100.00
2401;BME280;1211;43.200;27.914;2022-07-25T06:17:53;100992.50;;;27.42;100.00
2401;BME280;1211;43.200;27.914;2022-07-25T06:20:20;100983.34;;;27.58;100.00
2401;BME280;1211;43.200;27.914;2022-07-25T06:22:47;100982.00;;;28.31;100.00
2401;BME280;1211;43.200;27.914;2022-07-25T06:25:14;100990.09;;;28.94;100.00
2401;BME280;1211;43.200;27.914;2022-07-25T06:27:41;100988.38;;;28.35;100.00
2401;BME280;1211;43.200;27.914;2022-07-25T06:30:10;100985.63;;;28.48;100.00
2401;BME280;1211;43.200;27.914;2022-07-25T06:32:38;100989.84;;;28.72;100.00
2401;BME280;1211;43.200;27.914;2022-07-25T06:35:05;100996.13;;;29.08;100.00
2401;BME280;1211;43.200;27.914;2022-07-25T06:37:36;100994.44;;;29.94;100.00
2401;BME280;1211;43.200;27.914;2022-07-25T06:40:05;100994.75;;;29.96;100.00
2401;BME280;1211;43.200;27.914;2022-07-25T06:42:37;100989.31;;;30.02;100.00
2401;BME280;1211;43.200;27.914;2022-07-25T06:45:05;100984.91;;;30.60;100.00
2401;BME280;1211;43.200;27.914;2022-07-25T06:47:33;100980.59;;;30.56;100.00
2401;BME280;1211;43.200;27.914;2022-07-25T06:50:00;100988.06;;;31.93;99.29
2401;BME280;1211;43.200;27.914;2022-07-25T06:52:27;100991.94;;;33.12;90.76
2401;BME280;1211;43.200;27.914;2022-07-25T06:54:54;101001.00;;;32.92;88.57
2401;BME280;1211;43.200;27.914;2022-07-25T06:57:21;101004.81;;;32.80;87.42
2401;BME280;1211;43.200;27.914;2022-07-25T06:59:48;101008.19;;;33.75;83.33
2401;BME280;1211;43.200;27.914;2022-07-25T07:02:15;101007.66;;;33.07;83.01
2401;BME280;1211;43.200;27.914;2022-07-25T07:04:43;101004.03;;;33.34;83.10
2401;BME280;1211;43.200;27.914;2022-07-25T07:07:10;101003.06;;;33.37;80.01
2401;BME280;1211;43.200;27.914;2022-07-25T07:09:37;101008.63;;;33.32;80.48
2401;BME280;1211;43.200;27.914;2022-07-25T07:12:04;101012.97;;;34.77;75.27
2401;BME280;1211;43.200;27.914;2022-07-25T07:14:31;101013.13;;;34.50;73.32
2401;BME280;1211;43.200;27.914;2022-07-25T07:16:58;101016.88;;;33.21;75.15
2401;BME280;1211;43.200;27.914;2022-07-25T07:19:25;101014.75;;;34.09;72.73
2401;BME280;1211;43.200;27.914;2022-07-25T07:21:53;101013.25;;;34.31;71.73
2401;BME280;1211;43.200;27.914;2022-07-25T07:24:20;101006.34;;;34.05;71.63
2401;BME280;1211;43.200;27.914;2022-07-25T07:26:47;101002.00;;;33.86;72.63
2401;BME280;1211;43.200;27.914;2022-07-25T07:29:14;101012.22;;;32.59;77.05
2401;BME280;1211;43.200;27.914;2022-07-25T07:31:41;101009.72;;;33.07;76.84
2401;BME280;1211;43.200;27.914;2022-07-25T07:34:08;101013.84;;;33.33;77.57
2401;BME280;1211;43.200;27.914;2022-07-25T07:36:35;101013.72;;;32.24;81.37
2401;BME280;1211;43.200;27.914;2022-07-25T07:39:04;101017.81;;;31.39;84.27
2401;BME280;1211;43.200;27.914;2022-07-25T07:41:31;101021.56;;;31.27;87.52
2401;BME280;1211;43.200;27.914;2022-07-25T07:43:57;101017.00;;;30.36;95.54
2401;BME280;1211;43.200;27.914;2022-07-25T07:46:24;101014.09;;;32.04;88.28
2401;BME280;1211;43.200;27.914;2022-07-25T07:48:51;101026.13;;;34.27;77.46
2401;BME280;1211;43.200;27.914;2022-07-25T07:51:18;101027.94;;;34.96;73.67
2401;BME280;1211;43.200;27.914;2022-07-25T07:53:45;101025.41;;;34.65;73.98
2401;BME280;1211;43.200;27.914;2022-07-25T07:56:31;101016.81;;;33.57;75.96
2401;BME280;1211;43.200;27.914;2022-07-25T07:58:57;101022.41;;;33.42;75.34
2401;BME280;1211;43.200;27.914;2022-07-25T08:01:24;101019.94;;;35.14;70.72
2401;BME280;1211;43.200;27.914;2022-07-25T08:03:51;101019.22;;;34.43;71.62
2401;BME280;1211;43.200;27.914;2022-07-25T08:06:18;101019.53;;;33.51;73.92
2401;BME280;1211;43.200;27.914;2022-07-25T08:08:45;101017.03;;;33.17;75.18
2401;BME280;1211;43.200;27.914;2022-07-25T08:11:12;101010.81;;;33.37;73.62
2401;BME280;1211;43.200;27.914;2022-07-25T08:13:40;101019.81;;;33.72;73.90
2401;BME280;1211;43.200;27.914;2022-07-25T08:16:07;101016.88;;;33.11;74.51
2401;BME280;1211;43.200;27.914;2022-07-25T08:18:36;101017.28;;;31.75;80.64
2401;BME280;1211;43.200;27.914;2022-07-25T08:21:03;101019.28;;;31.66;81.42
2401;BME280;1211;43.200;27.914;2022-07-25T08:23:31;101031.88;;;31.56;84.18
2401;BME280;1211;43.200;27.914;2022-07-25T08:26:00;101030.97;;;31.59;85.95
2401;BME280;1211;43.200;27.914;2022-07-25T08:28:27;101022.66;;;30.74;99.76
2401;BME280;1211;43.200;27.914;2022-07-25T08:30:55;101028.50;;;30.92;100.00
2401;BME280;1211;43.200;27.914;2022-07-25T08:33:23;101032.00;;;31.08;95.39
2401;BME280;1211;43.200;27.914;2022-07-25T08:35:52;101025.47;;;30.86;94.91
2401;BME280;1211;43.200;27.914;2022-07-25T08:38:20;101029.22;;;31.18;95.64
2401;BME280;1211;43.200;27.914;2022-07-25T08:40:48;101034.72;;;31.34;93.75
2401;BME280;1211;43.200;27.914;2022-07-25T08:43:16;101038.41;;;32.18;90.66
2401;BME280;1211;43.200;27.914;2022-07-25T08:45:45;101030.78;;;31.84;91.46
2401;BME280;1211;43.200;27.914;2022-07-25T08:48:16;101038.75;;;33.42;84.27
2401;BME280;1211;43.200;27.914;2022-07-25T08:50:43;101040.72;;;34.29;78.66
2401;BME280;1211;43.200;27.914;2022-07-25T08:53:12;101033.84;;;33.15;82.40
2401;BME280;1211;43.200;27.914;2022-07-25T08:55:40;101031.56;;;32.64;84.64
2401;BME280;1211;43.200;27.914;2022-07-25T08:58:10;101029.72;;;33.25;83.12
2401;BME280;1211;43.200;27.914;2022-07-25T09:00:37;101037.94;;;33.41;79.10
2401;BME280;1211;43.200;27.914;2022-07-25T09:03:04;101028.63;;;32.37;83.26
2401;BME280;1211;43.200;27.914;2022-07-25T09:05:34;101027.13;;;32.14;85.57
2401;BME280;1211;43.200;27.914;2022-07-25T09:08:06;101026.66;;;32.16;85.61
2401;BME280;1211;43.200;27.914;2022-07-25T09:10:33;101025.94;;;32.03;87.83
2401;BME280;1211;43.200;27.914;2022-07-25T09:13:03;101029.56;;;32.25;87.96
2401;BME280;1211;43.200;27.914;2022-07-25T09:15:33;101031.63;;;32.24;86.95
2401;BME280;1211;43.200;27.914;2022-07-25T09:18:03;101027.88;;;32.46;88.54
2401;BME280;1211;43.200;27.914;2022-07-25T09:20:40;101030.72;;;32.06;92.50
2401;BME280;1211;43.200;27.914;2022-07-25T09:23:08;101029.00;;;32.48;90.46
2401;BME280;1211;43.200;27.914;2022-07-25T09:25:35;101030.56;;;32.09;89.01
2401;BME280;1211;43.200;27.914;2022-07-25T09:28:13;101031.75;;;31.59;94.14
2401;BME280;1211;43.200;27.914;2022-07-25T09:30:51;101028.44;;;31.91;92.99
2401;BME280;1211;43.200;27.914;2022-07-25T09:33:19;101028.03;;;31.28;95.63
2401;BME280;1211;43.200;27.914;2022-07-25T09:35:48;101028.00;;;31.06;100.00
2401;BME280;1211;43.200;27.914;2022-07-25T09:38:16;101029.47;;;31.10;100.00
2401;BME280;1211;43.200;27.914;2022-07-25T09:40:54;101035.16;;;31.10;98.56
2401;BME280;1211;43.200;27.914;2022-07-25T09:43:21;101038.13;;;29.59;100.00
2401;BME280;1211;43.200;27.914;2022-07-25T09:45:49;101033.59;;;29.32;100.00
2401;BME280;1211;43.200;27.914;2022-07-25T09:48:17;101035.03;;;29.53;100.00
2401;BME280;1211;43.200;27.914;2022-07-25T09:50:44;101034.91;;;29.57;100.00
2401;BME280;1211;43.200;27.914;2022-07-25T09:53:13;101031.66;;;30.47;100.00
2401;BME280;1211;43.200;27.914;2022-07-25T09:55:40;101029.53;;;30.38;100.00
2401;BME280;1211;43.200;27.914;2022-07-25T09:58:07;101025.91;;;31.94;100.00
2401;BME280;1211;43.200;27.914;2022-07-25T10:00:34;101030.72;;;32.46;99.92
2401;BME280;1211;43.200;27.914;2022-07-25T10:03:14;101029.59;;;34.31;92.12
2401;BME280;1211;43.200;27.914;2022-07-25T10:06:01;101021.59;;;32.69;96.22
2401;BME280;1211;43.200;27.914;2022-07-25T10:08:36;101023.72;;;31.98;100.00
2401;BME280;1211;43.200;27.914;2022-07-25T10:11:04;101016.94;;;32.04;100.00
2401;BME280;1211;43.200;27.914;2022-07-25T10:13:34;101018.41;;;31.34;100.00
2401;BME280;1211;43.200;27.914;2022-07-25T10:16:14;101011.88;;;30.56;100.00
2401;BME280;1211;43.200;27.914;2022-07-25T10:18:47;101010.97;;;30.59;100.00
2401;BME280;1211;43.200;27.914;2022-07-25T10:21:15;101024.50;;;30.42;100.00
2401;BME280;1211;43.200;27.914;2022-07-25T10:23:44;101016.69;;;30.08;100.00
2401;BME280;1211;43.200;27.914;2022-07-25T10:26:13;101007.56;;;30.39;100.00
2401;BME280;1211;43.200;27.914;2022-07-25T10:28:43;101013.25;;;30.39;100.00
2401;BME280;1211;43.200;27.914;2022-07-25T10:31:19;101011.88;;;29.80;100.00
2401;BME280;1211;43.200;27.914;2022-07-25T10:33:52;101002.16;;;29.39;100.00
2401;BME280;1211;43.200;27.914;2022-07-25T10:36:20;101002.19;;;29.52;100.00
2401;BME280;1211;43.200;27.914;2022-07-25T10:38:52;101012.97;;;29.44;100.00
2401;BME280;1211;43.200;27.914;2022-07-25T10:41:23;101000.72;;;29.47;100.00
2401;BME280;1211;43.200;27.914;2022-07-25T10:43:55;100998.25;;;29.75;100.00
2401;BME280;1211;43.200;27.914;2022-07-25T10:46:25;101006.25;;;30.78;100.00
2401;BME280;1211;43.200;27.914;2022-07-25T10:48:59;100997.44;;;32.03;100.00
2401;BME280;1211;43.200;27.914;2022-07-25T10:51:27;100998.00;;;31.27;100.00
2401;BME280;1211;43.200;27.914;2022-07-25T10:53:56;100994.41;;;31.14;100.00
2401;BME280;1211;43.200;27.914;2022-07-25T10:56:25;100989.59;;;31.54;100.00
2401;BME280;1211;43.200;27.914;2022-07-25T10:58:54;100992.22;;;30.36;100.00
2401;BME280;1211;43.200;27.914;2022-07-25T11:01:22;100982.78;;;30.39;100.00
2401;BME280;1211;43.200;27.914;2022-07-25T11:03:51;100988.28;;;30.81;100.00
2401;BME280;1211;43.200;27.914;2022-07-25T11:06:29;100973.06;;;30.02;100.00
2401;BME280;1211;43.200;27.914;2022-07-25T11:08:58;100980.75;;;30.52;100.00
2401;BME280;1211;43.200;27.914;2022-07-25T11:11:36;100970.13;;;30.53;100.00
2401;BME280;1211;43.200;27.914;2022-07-25T11:14:04;100970.91;;;30.66;100.00
2401;BME280;1211;43.200;27.914;2022-07-25T11:16:31;100975.81;;;30.53;100.00
2401;BME280;1211;43.200;27.914;2022-07-25T11:18:58;100979.41;;;30.19;100.00
2401;BME280;1211;43.200;27.914;2022-07-25T11:21:25;100973.06;;;30.02;100.00
2401;BME280;1211;43.200;27.914;2022-07-25T11:23:52;100964.97;;;30.73;100.00
2401;BME280;1211;43.200;27.914;2022-07-25T11:26:20;100964.06;;;30.29;100.00
2401;BME280;1211;43.200;27.914;2022-07-25T11:28:49;100970.97;;;29.90;100.00
2401;BME280;1211;43.200;27.914;2022-07-25T11:31:17;100971.66;;;30.19;100.00
2401;BME280;1211;43.200;27.914;2022-07-25T11:33:46;100969.69;;;30.42;100.00
2401;BME280;1211;43.200;27.914;2022-07-25T11:36:14;100969.28;;;30.99;100.00
2401;BME280;1211;43.200;27.914;2022-07-25T11:38:41;100963.56;;;30.78;100.00
2401;BME280;1211;43.200;27.914;2022-07-25T11:41:12;100964.31;;;30.09;100.00
2401;BME280;1211;43.200;27.914;2022-07-25T11:43:47;100965.75;;;30.26;100.00
2401;BME280;1211;43.200;27.914;2022-07-25T11:46:14;100964.75;;;30.67;100.00
2401;BME280;1211;43.200;27.914;2022-07-25T11:48:42;100960.94;;;30.83;100.00
2401;BME280;1211;43.200;27.914;2022-07-25T11:51:13;100948.06;;;30.57;100.00
2401;BME280;1211;43.200;27.914;2022-07-25T11:53:42;100948.50;;;29.83;100.00
2401;BME280;1211;43.200;27.914;2022-07-25T11:56:14;100958.63;;;29.97;100.00
2401;BME280;1211;43.200;27.914;2022-07-25T11:58:48;100937.78;;;30.25;100.00
2401;BME280;1211;43.200;27.914;2022-07-25T12:01:15;100936.94;;;30.50;100.00
2401;BME280;1211;43.200;27.914;2022-07-25T12:03:42;100940.31;;;30.23;100.00
2401;BME280;1211;43.200;27.914;2022-07-25T12:06:10;100944.69;;;28.94;100.00
2401;BME280;1211;43.200;27.914;2022-07-25T12:08:39;100938.28;;;28.32;100.00
2401;BME280;1211;43.200;27.914;2022-07-25T12:11:20;100923.84;;;28.26;100.00
2401;BME280;1211;43.200;27.914;2022-07-25T12:13:49;100926.78;;;28.52;100.00
2401;BME280;1211;43.200;27.914;2022-07-25T12:16:16;100932.72;;;28.57;100.00
2401;BME280;1211;43.200;27.914;2022-07-25T12:18:43;100930.78;;;28.54;100.00
2401;BME280;1211;43.200;27.914;2022-07-25T12:21:10;100928.16;;;28.31;100.00
2401;BME280;1211;43.200;27.914;2022-07-25T12:23:37;100933.47;;;27.97;100.00
2401;BME280;1211;43.200;27.914;2022-07-25T12:26:07;100924.97;;;27.97;100.00
2401;BME280;1211;43.200;27.914;2022-07-25T12:28:35;100928.22;;;28.11;100.00
2401;BME280;1211;43.200;27.914;2022-07-25T12:31:03;100934.16;;;28.01;100.00
2401;BME280;1211;43.200;27.914;2022-07-25T12:33:30;100925.94;;;28.06;100.00
2401;BME280;1211;43.200;27.914;2022-07-25T12:35:58;100928.09;;;28.18;100.00
2401;BME280;1211;43.200;27.914;2022-07-25T12:38:25;100926.47;;;28.01;100.00
2401;BME280;1211;43.200;27.914;2022-07-25T12:40:52;100926.03;;;28.03;100.00
2401;BME280;1211;43.200;27.914;2022-07-25T12:43:19;100925.47;;;28.56;100.00
2401;BME280;1211;43.200;27.914;2022-07-25T12:45:46;100932.31;;;29.29;100.00
2401;BME280;1211;43.200;27.914;2022-07-25T12:48:15;100922.97;;;29.16;100.00
2401;BME280;1211;43.200;27.914;2022-07-25T12:50:42;100920.38;;;29.22;100.00
2401;BME280;1211;43.200;27.914;2022-07-25T12:53:10;100923.03;;;29.41;100.00
2401;BME280;1211;43.200;27.914;2022-07-25T12:55:37;100919.75;;;29.43;100.00
2401;BME280;1211;43.200;27.914;2022-07-25T12:58:04;100926.69;;;29.42;100.00